sensor_id;sensor_type;location;lat;lon;timestamp;pressure;altitude;pressure_sealevel;temperature
24714;BMP280;12820;51.580;5.010;2023-05-18T00:03:46;102720.34;;;13.12
24714;BMP280;12820;51.580;5.010;2023-05-18T00:08:50;102725.38;;;13.03
24714;BMP280;12820;51.580;5.010;2023-05-18T00:13:52;102721.13;;;12.97
24714;BMP280;12820;51.580;5.010;2023-05-18T00:18:54;102725.28;;;12.91
24714;BMP280;12820;51.580;5.010;2023-05-18T00:23:57;102721.03;;;12.83
24714;BMP280;12820;51.580;5.010;2023-05-18T00:29:00;102724.34;;;12.75
24714;BMP280;12820;51.580;5.010;2023-05-18T00:34:05;102723.44;;;12.68
24714;BMP280;12820;51.580;5.010;2023-05-18T00:39:08;102724.25;;;12.63
24714;BMP280;12820;51.580;5.010;2023-05-18T00:44:10;102719.13;;;12.56
24714;BMP280;12820;51.580;5.010;2023-05-18T00:49:12;102719.94;;;12.50
24714;BMP280;12820;51.580;5.010;2023-05-18T00:54:15;102709.78;;;12.44
24714;BMP280;12820;51.580;5.010;2023-05-18T00:59:18;102729.91;;;12.39
24714;BMP280;12820;51.580;5.010;2023-05-18T01:04:20;102735.72;;;12.33
24714;BMP280;12820;51.580;5.010;2023-05-18T01:09:25;102731.50;;;12.28
24714;BMP280;12820;51.580;5.010;2023-05-18T01:24:57;102735.53;;;12.08
24714;BMP280;12820;51.580;5.010;2023-05-18T01:30:00;102735.47;;;12.03
24714;BMP280;12820;51.580;5.010;2023-05-18T01:35:03;102744.66;;;11.98
24714;BMP280;12820;51.580;5.010;2023-05-18T01:40:06;102742.06;;;11.92
24714;BMP280;12820;51.580;5.010;2023-05-18T01:45:15;102739.50;;;11.88
24714;BMP280;12820;51.580;5.010;2023-05-18T01:50:24;102742.78;;;11.82
24714;BMP280;12820;51.580;5.010;2023-05-18T01:55:29;102738.56;;;11.78
24714;BMP280;12820;51.580;5.010;2023-05-18T02:00:33;102741.03;;;11.74
24714;BMP280;12820;51.580;5.010;2023-05-18T02:05:35;102746.84;;;11.69
24714;BMP280;12820;51.580;5.010;2023-05-18T02:10:37;102736.75;;;11.66
24714;BMP280;12820;51.580;5.010;2023-05-18T02:15:42;102735.03;;;11.62
24714;BMP280;12820;51.580;5.010;2023-05-18T02:20:46;102735.81;;;11.56
24714;BMP280;12820;51.580;5.010;2023-05-18T02:25:49;102738.28;;;11.52
24714;BMP280;12820;51.580;5.010;2023-05-18T02:30:52;102731.47;;;11.48
24714;BMP280;12820;51.580;5.010;2023-05-18T02:35:54;102728.06;;;11.43
24714;BMP280;12820;51.580;5.010;2023-05-18T02:40:58;102723.00;;;11.40
24714;BMP280;12820;51.580;5.010;2023-05-18T02:46:00;102726.31;;;11.37
24714;BMP280;12820;51.580;5.010;2023-05-18T02:51:03;102722.91;;;11.32
24714;BMP280;12820;51.580;5.010;2023-05-18T02:56:06;102732.03;;;11.27
24714;BMP280;12820;51.580;5.010;2023-05-18T03:01:19;102733.66;;;11.23
24714;BMP280;12820;51.580;5.010;2023-05-18T03:06:26;102726.88;;;11.18
24714;BMP280;12820;51.580;5.010;2023-05-18T03:11:31;102720.09;;;11.13
24714;BMP280;12820;51.580;5.010;2023-05-18T03:16:33;102729.28;;;11.09
24714;BMP280;12820;51.580;5.010;2023-05-18T03:21:35;102721.69;;;11.05
24714;BMP280;12820;51.580;5.010;2023-05-18T03:26:38;102727.50;;;11.02
24714;BMP280;12820;51.580;5.010;2023-05-18T03:31:42;102730.81;;;10.99
24714;BMP280;12820;51.580;5.010;2023-05-18T03:36:46;102730.75;;;10.94
24714;BMP280;12820;51.580;5.010;2023-05-18T03:41:49;102723.94;;;10.89
24714;BMP280;12820;51.580;5.010;2023-05-18T03:46:52;102727.25;;;10.85
24714;BMP280;12820;51.580;5.010;2023-05-18T03:51:55;102733.88;;;10.82
24714;BMP280;12820;51.580;5.010;2023-05-18T03:56:57;102729.69;;;10.79
24714;BMP280;12820;51.580;5.010;2023-05-18T04:01:59;102738.00;;;10.77
24714;BMP280;12820;51.580;5.010;2023-05-18T04:07:02;102735.50;;;10.75
24714;BMP280;12820;51.580;5.010;2023-05-18T04:12:06;102744.66;;;10.73
24714;BMP280;12820;51.580;5.010;2023-05-18T04:17:09;102742.16;;;10.73
24714;BMP280;12820;51.580;5.010;2023-05-18T04:22:11;102748.88;;;10.74
24714;BMP280;12820;51.580;5.010;2023-05-18T04:27:13;102757.31;;;10.76
24714;BMP280;12820;51.580;5.010;2023-05-18T04:32:16;102752.31;;;10.79
24714;BMP280;12820;51.580;5.010;2023-05-18T04:37:19;102754.94;;;10.85
24714;BMP280;12820;51.580;5.010;2023-05-18T04:42:21;102754.16;;;10.92
24714;BMP280;12820;51.580;5.010;2023-05-18T04:47:24;102755.97;;;10.99
24714;BMP280;12820;51.580;5.010;2023-05-18T04:52:27;102761.94;;;11.06
24714;BMP280;12820;51.580;5.010;2023-05-18T04:57:31;102770.47;;;11.16
24714;BMP280;12820;51.580;5.010;2023-05-18T05:02:34;102768.09;;;11.26
24714;BMP280;12820;51.580;5.010;2023-05-18T05:07:38;102766.59;;;11.37
24714;BMP280;12820;51.580;5.010;2023-05-18T05:12:43;102771.78;;;11.48
24714;BMP280;12820;51.580;5.010;2023-05-18T05:17:46;102765.25;;;11.63
24714;BMP280;12820;51.580;5.010;2023-05-18T05:22:49;102765.41;;;11.75
24714;BMP280;12820;51.580;5.010;2023-05-18T05:27:57;102767.22;;;11.88
24714;BMP280;12820;51.580;5.010;2023-05-18T05:32:59;102775.78;;;12.00
24714;BMP280;12820;51.580;5.010;2023-05-18T05:38:02;102770.81;;;12.08
24714;BMP280;12820;51.580;5.010;2023-05-18T05:43:06;102764.16;;;12.16
24714;BMP280;12820;51.580;5.010;2023-05-18T05:48:08;102758.34;;;12.25
24714;BMP280;12820;51.580;5.010;2023-05-18T05:53:15;102764.31;;;12.31
24714;BMP280;12820;51.580;5.010;2023-05-18T05:58:22;102764.38;;;12.37
24714;BMP280;12820;51.580;5.010;2023-05-18T06:03:29;102764.44;;;12.43
24714;BMP280;12820;51.580;5.010;2023-05-18T06:08:39;102771.19;;;12.49
24714;BMP280;12820;51.580;5.010;2023-05-18T06:13:43;102767.03;;;12.54
24714;BMP280;12820;51.580;5.010;2023-05-18T06:18:46;102766.31;;;12.61
24714;BMP280;12820;51.580;5.010;2023-05-18T06:23:49;102768.84;;;12.67
24714;BMP280;12820;51.580;5.010;2023-05-18T06:29:06;102759.69;;;12.75
24714;BMP280;12820;51.580;5.010;2023-05-18T06:34:39;102768.13;;;12.82
24714;BMP280;12820;51.580;5.010;2023-05-18T06:39:41;102777.44;;;12.89
24714;BMP280;12820;51.580;5.010;2023-05-18T06:44:45;102781.72;;;12.99
24714;BMP280;12820;51.580;5.010;2023-05-18T06:49:53;102776.72;;;13.11
24714;BMP280;12820;51.580;5.010;2023-05-18T06:54:55;102787.75;;;13.21
24714;BMP280;12820;51.580;5.010;2023-05-18T06:59:59;102788.63;;;13.29
24714;BMP280;12820;51.580;5.010;2023-05-18T07:05:03;102788.72;;;13.44
24714;BMP280;12820;51.580;5.010;2023-05-18T07:10:06;102787.09;;;13.54
24714;BMP280;12820;51.580;5.010;2023-05-18T07:15:09;102793.88;;;13.64
24714;BMP280;12820;51.580;5.010;2023-05-18T07:20:12;102795.59;;;13.74
24714;BMP280;12820;51.580;5.010;2023-05-18T07:25:15;102795.66;;;13.83
24714;BMP280;12820;51.580;5.010;2023-05-18T07:30:17;102803.25;;;13.91
24714;BMP280;12820;51.580;5.010;2023-05-18T07:35:19;102809.19;;;13.99
24714;BMP280;12820;51.580;5.010;2023-05-18T07:40:22;102805.03;;;14.08
24714;BMP280;12820;51.580;5.010;2023-05-18T07:45:24;102800.81;;;14.18
24714;BMP280;12820;51.580;5.010;2023-05-18T07:50:27;102810.94;;;14.28
24714;BMP280;12820;51.580;5.010;2023-05-18T07:55:30;102805.91;;;14.41
24714;BMP280;12820;51.580;5.010;2023-05-18T08:00:33;102816.03;;;14.57
24714;BMP280;12820;51.580;5.010;2023-05-18T08:05:35;102817.75;;;14.77
24714;BMP280;12820;51.580;5.010;2023-05-18T08:10:38;102813.53;;;14.99
24714;BMP280;12820;51.580;5.010;2023-05-18T08:15:40;102807.59;;;15.27
24714;BMP280;12820;51.580;5.010;2023-05-18T08:20:42;102812.56;;;15.59
24714;BMP280;12820;51.580;5.010;2023-05-18T08:25:44;102811.56;;;15.93
24714;BMP280;12820;51.580;5.010;2023-05-18T08:30:46;102796.19;;;16.24
24714;BMP280;12820;51.580;5.010;2023-05-18T08:35:49;102793.34;;;16.65
24714;BMP280;12820;51.580;5.010;2023-05-18T08:41:00;102791.25;;;17.07
24714;BMP280;12820;51.580;5.010;2023-05-18T08:46:10;102785.75;;;17.48
24714;BMP280;12820;51.580;5.010;2023-05-18T08:51:18;102779.44;;;17.78
24714;BMP280;12820;51.580;5.010;2023-05-18T08:56:22;102790.91;;;18.09
24714;BMP280;12820;51.580;5.010;2023-05-18T09:01:25;102778.47;;;18.44
24714;BMP280;12820;51.580;5.010;2023-05-18T09:06:31;102775.34;;;18.81
24714;BMP280;12820;51.580;5.010;2023-05-18T09:11:33;102767.78;;;19.21
24714;BMP280;12820;51.580;5.010;2023-05-18T09:16:36;102761.09;;;19.58
24714;BMP280;12820;51.580;5.010;2023-05-18T09:21:39;102767.19;;;19.90
24714;BMP280;12820;51.580;5.010;2023-05-18T09:26:41;102757.91;;;20.23
24714;BMP280;12820;51.580;5.010;2023-05-18T09:31:44;102756.53;;;20.46
24714;BMP280;12820;51.580;5.010;2023-05-18T09:36:50;102755.88;;;20.70
24714;BMP280;12820;51.580;5.010;2023-05-18T09:41:57;102750.06;;;20.97
24714;BMP280;12820;51.580;5.010;2023-05-18T09:47:07;102749.75;;;21.08
24714;BMP280;12820;51.580;5.010;2023-05-18T09:52:13;102750.09;;;21.26
24714;BMP280;12820;51.580;5.010;2023-05-18T09:57:19;102743.41;;;21.52
24714;BMP280;12820;51.580;5.010;2023-05-18T10:02:23;102746.69;;;21.85
24714;BMP280;12820;51.580;5.010;2023-05-18T10:07:26;102741.69;;;21.79
24714;BMP280;12820;51.580;5.010;2023-05-18T10:12:28;102745.56;;;21.65
24714;BMP280;12820;51.580;5.010;2023-05-18T10:17:31;102730.09;;;21.68
24714;BMP280;12820;51.580;5.010;2023-05-18T10:22:36;102734.19;;;21.73
24714;BMP280;12820;51.580;5.010;2023-05-18T10:27:43;102726.38;;;21.78
24714;BMP280;12820;51.580;5.010;2023-05-18T10:32:54;102711.59;;;21.87
24714;BMP280;12820;51.580;5.010;2023-05-18T10:37:58;102712.69;;;22.06
24714;BMP280;12820;51.580;5.010;2023-05-18T10:43:02;102713.03;;;22.22
24714;BMP280;12820;51.580;5.010;2023-05-18T10:48:08;102715.41;;;22.28
24714;BMP280;12820;51.580;5.010;2023-05-18T10:53:11;102709.78;;;22.43
24714;BMP280;12820;51.580;5.010;2023-05-18T10:58:16;102704.78;;;22.63
24714;BMP280;12820;51.580;5.010;2023-05-18T11:03:18;102696.25;;;22.87
24714;BMP280;12820;51.580;5.010;2023-05-18T11:08:25;102698.69;;;23.14
24714;BMP280;12820;51.580;5.010;2023-05-18T11:13:30;102687.44;;;23.40
24714;BMP280;12820;51.580;5.010;2023-05-18T11:18:34;102671.09;;;23.63
24714;BMP280;12820;51.580;5.010;2023-05-18T11:23:37;102681.22;;;23.88
24714;BMP280;12820;51.580;5.010;2023-05-18T11:28:42;102679.38;;;24.13
24714;BMP280;12820;51.580;5.010;2023-05-18T11:33:45;102673.19;;;24.38
24714;BMP280;12820;51.580;5.010;2023-05-18T11:38:49;102671.38;;;24.59
24714;BMP280;12820;51.580;5.010;2023-05-18T11:49:16;102666.63;;;25.07
24714;BMP280;12820;51.580;5.010;2023-05-18T11:54:19;102663.88;;;25.30
24714;BMP280;12820;51.580;5.010;2023-05-18T11:59:30;102654.28;;;25.51
24714;BMP280;12820;51.580;5.010;2023-05-18T12:04:33;102663.16;;;25.80
24714;BMP280;12820;51.580;5.010;2023-05-18T12:09:39;102645.47;;;26.07
24714;BMP280;12820;51.580;5.010;2023-05-18T12:14:46;102646.53;;;26.37
24714;BMP280;12820;51.580;5.010;2023-05-18T12:19:50;102635.00;;;26.60
24714;BMP280;12820;51.580;5.010;2023-05-18T12:24:53;102641.84;;;26.76
24714;BMP280;12820;51.580;5.010;2023-05-18T12:29:55;102636.72;;;26.91
24714;BMP280;12820;51.580;5.010;2023-05-18T12:34:58;102641.66;;;26.95
24714;BMP280;12820;51.580;5.010;2023-05-18T12:40:00;102637.31;;;27.12
24714;BMP280;12820;51.580;5.010;2023-05-18T12:45:03;102627.72;;;28.18
24714;BMP280;12820;51.580;5.010;2023-05-18T12:50:08;102619.75;;;29.58
24714;BMP280;12820;51.580;5.010;2023-05-18T12:55:16;102616.75;;;30.76
24714;BMP280;12820;51.580;5.010;2023-05-18T13:00:22;102612.13;;;31.96
24714;BMP280;12820;51.580;5.010;2023-05-18T13:05:24;102610.97;;;32.98
24714;BMP280;12820;51.580;5.010;2023-05-18T13:10:30;102597.78;;;33.93
24714;BMP280;12820;51.580;5.010;2023-05-18T13:15:36;102586.00;;;34.67
24714;BMP280;12820;51.580;5.010;2023-05-18T13:20:44;102579.63;;;35.47
24714;BMP280;12820;51.580;5.010;2023-05-18T13:25:49;102580.84;;;36.08
24714;BMP280;12820;51.580;5.010;2023-05-18T13:30:52;102583.66;;;36.42
24714;BMP280;12820;51.580;5.010;2023-05-18T13:35:54;102575.81;;;36.77
24714;BMP280;12820;51.580;5.010;2023-05-18T13:40:56;102571.28;;;37.22
24714;BMP280;12820;51.580;5.010;2023-05-18T13:45:58;102567.19;;;37.54
24714;BMP280;12820;51.580;5.010;2023-05-18T13:51:01;102557.19;;;37.74
24714;BMP280;12820;51.580;5.010;2023-05-18T13:56:03;102556.69;;;37.96
24714;BMP280;12820;51.580;5.010;2023-05-18T14:01:05;102537.22;;;38.23
24714;BMP280;12820;51.580;5.010;2023-05-18T14:06:14;102547.44;;;38.34
24714;BMP280;12820;51.580;5.010;2023-05-18T14:11:16;102550.34;;;38.23
24714;BMP280;12820;51.580;5.010;2023-05-18T14:16:18;102538.75;;;38.08
24714;BMP280;12820;51.580;5.010;2023-05-18T14:21:21;102537.13;;;37.90
24714;BMP280;12820;51.580;5.010;2023-05-18T14:26:23;102530.09;;;37.74
24714;BMP280;12820;51.580;5.010;2023-05-18T14:31:25;102520.00;;;37.45
24714;BMP280;12820;51.580;5.010;2023-05-18T14:36:27;102520.09;;;37.18
24714;BMP280;12820;51.580;5.010;2023-05-18T14:41:29;102506.91;;;36.84
24714;BMP280;12820;51.580;5.010;2023-05-18T14:46:32;102510.38;;;36.59
24714;BMP280;12820;51.580;5.010;2023-05-18T14:51:34;102508.56;;;36.33
24714;BMP280;12820;51.580;5.010;2023-05-18T14:56:36;102511.06;;;36.25
24714;BMP280;12820;51.580;5.010;2023-05-18T15:01:38;102505.44;;;36.11
24714;BMP280;12820;51.580;5.010;2023-05-18T15:06:40;102505.47;;;35.92
24714;BMP280;12820;51.580;5.010;2023-05-18T15:11:43;102496.97;;;35.63
24714;BMP280;12820;51.580;5.010;2023-05-18T15:16:45;102494.78;;;35.49
24714;BMP280;12820;51.580;5.010;2023-05-18T15:21:47;102505.00;;;35.52
24714;BMP280;12820;51.580;5.010;2023-05-18T15:26:50;102496.72;;;35.56
24714;BMP280;12820;51.580;5.010;2023-05-18T15:31:52;102498.09;;;35.60
24714;BMP280;12820;51.580;5.010;2023-05-18T15:36:56;102490.94;;;35.62
24714;BMP280;12820;51.580;5.010;2023-05-18T15:41:58;102486.28;;;35.47
24714;BMP280;12820;51.580;5.010;2023-05-18T15:47:00;102482.97;;;35.36
24714;BMP280;12820;51.580;5.010;2023-05-18T15:52:03;102477.44;;;35.30
24714;BMP280;12820;51.580;5.010;2023-05-18T15:57:05;102472.78;;;35.24
24714;BMP280;12820;51.580;5.010;2023-05-18T16:02:07;102469.16;;;35.06
24714;BMP280;12820;51.580;5.010;2023-05-18T16:07:09;102459.53;;;34.79
24714;BMP280;12820;51.580;5.010;2023-05-18T16:12:11;102461.13;;;34.62
24714;BMP280;12820;51.580;5.010;2023-05-18T16:17:13;102460.94;;;34.54
24714;BMP280;12820;51.580;5.010;2023-05-18T16:22:15;102472.34;;;34.44
24714;BMP280;12820;51.580;5.010;2023-05-18T16:27:18;102462.00;;;34.33
24714;BMP280;12820;51.580;5.010;2023-05-18T16:32:20;102460.47;;;34.30
24714;BMP280;12820;51.580;5.010;2023-05-18T16:37:22;102452.63;;;34.30
24714;BMP280;12820;51.580;5.010;2023-05-18T16:42:24;102445.31;;;34.25
24714;BMP280;12820;51.580;5.010;2023-05-18T16:47:26;102454.59;;;34.09
24714;BMP280;12820;51.580;5.010;2023-05-18T16:52:29;102447.34;;;33.92
24714;BMP280;12820;51.580;5.010;2023-05-18T16:57:31;102457.91;;;33.71
24714;BMP280;12820;51.580;5.010;2023-05-18T17:02:34;102447.50;;;33.51
24714;BMP280;12820;51.580;5.010;2023-05-18T17:07:41;102448.66;;;33.27
24714;BMP280;12820;51.580;5.010;2023-05-18T17:12:43;102446.06;;;32.85
24714;BMP280;12820;51.580;5.010;2023-05-18T17:17:45;102456.34;;;32.35
24714;BMP280;12820;51.580;5.010;2023-05-18T17:22:47;102453.03;;;31.90
24714;BMP280;12820;51.580;5.010;2023-05-18T17:27:50;102456.78;;;31.42
24714;BMP280;12820;51.580;5.010;2023-05-18T17:32:52;102454.91;;;30.98
24714;BMP280;12820;51.580;5.010;2023-05-18T17:37:55;102454.75;;;30.54
24714;BMP280;12820;51.580;5.010;2023-05-18T17:42:58;102449.19;;;29.99
24714;BMP280;12820;51.580;5.010;2023-05-18T17:48:00;102455.25;;;29.37
24714;BMP280;12820;51.580;5.010;2023-05-18T17:53:03;102452.66;;;28.86
24714;BMP280;12820;51.580;5.010;2023-05-18T17:58:06;102453.41;;;28.35
24714;BMP280;12820;51.580;5.010;2023-05-18T18:03:08;102455.00;;;27.81
24714;BMP280;12820;51.580;5.010;2023-05-18T18:08:11;102457.53;;;27.25
24714;BMP280;12820;51.580;5.010;2023-05-18T18:13:15;102470.88;;;26.73
24714;BMP280;12820;51.580;5.010;2023-05-18T18:18:17;102456.50;;;26.22
24714;BMP280;12820;51.580;5.010;2023-05-18T18:23:19;102452.16;;;25.74
24714;BMP280;12820;51.580;5.010;2023-05-18T18:28:21;102466.41;;;25.31
24714;BMP280;12820;51.580;5.010;2023-05-18T18:33:23;102464.03;;;24.93
24714;BMP280;12820;51.580;5.010;2023-05-18T18:38:29;102475.22;;;24.56
24714;BMP280;12820;51.580;5.010;2023-05-18T18:43:31;102476.84;;;24.21
24714;BMP280;12820;51.580;5.010;2023-05-18T18:48:33;102489.56;;;23.85
24714;BMP280;12820;51.580;5.010;2023-05-18T18:53:35;102497.00;;;23.51
24714;BMP280;12820;51.580;5.010;2023-05-18T18:58:37;102480.47;;;23.16
24714;BMP280;12820;51.580;5.010;2023-05-18T19:03:40;102486.00;;;22.85
24714;BMP280;12820;51.580;5.010;2023-05-18T19:08:42;102487.22;;;22.53
24714;BMP280;12820;51.580;5.010;2023-05-18T19:13:44;102501.16;;;22.24
24714;BMP280;12820;51.580;5.010;2023-05-18T19:18:46;102508.22;;;21.94
24714;BMP280;12820;51.580;5.010;2023-05-18T19:23:48;102502.31;;;21.67
24714;BMP280;12820;51.580;5.010;2023-05-18T19:28:50;102514.38;;;21.38
24714;BMP280;12820;51.580;5.010;2023-05-18T19:33:53;102511.81;;;21.11
24714;BMP280;12820;51.580;5.010;2023-05-18T19:38:56;102508.41;;;20.84
24714;BMP280;12820;51.580;5.010;2023-05-18T19:43:58;102518.59;;;20.57
24714;BMP280;12820;51.580;5.010;2023-05-18T19:49:00;102523.56;;;20.32
24714;BMP280;12820;51.580;5.010;2023-05-18T19:54:03;102518.28;;;20.07
24714;BMP280;12820;51.580;5.010;2023-05-18T19:59:05;102523.13;;;19.84
24714;BMP280;12820;51.580;5.010;2023-05-18T20:04:07;102524.59;;;19.61
24714;BMP280;12820;51.580;5.010;2023-05-18T20:09:09;102525.91;;;19.41
24714;BMP280;12820;51.580;5.010;2023-05-18T20:14:11;102533.22;;;19.21
24714;BMP280;12820;51.580;5.010;2023-05-18T20:19:14;102533.59;;;19.03
24714;BMP280;12820;51.580;5.010;2023-05-18T20:24:18;102538.25;;;18.86
24714;BMP280;12820;51.580;5.010;2023-05-18T20:29:20;102550.47;;;18.70
24714;BMP280;12820;51.580;5.010;2023-05-18T20:34:22;102546.53;;;18.54
24714;BMP280;12820;51.580;5.010;2023-05-18T20:39:25;102550.22;;;18.39
24714;BMP280;12820;51.580;5.010;2023-05-18T20:44:29;102562.38;;;18.25
24714;BMP280;12820;51.580;5.010;2023-05-18T20:49:32;102561.78;;;18.12
24714;BMP280;12820;51.580;5.010;2023-05-18T20:54:34;102561.16;;;17.98
24714;BMP280;12820;51.580;5.010;2023-05-18T20:59:36;102569.03;;;17.86
24714;BMP280;12820;51.580;5.010;2023-05-18T21:04:39;102566.69;;;17.72
24714;BMP280;12820;51.580;5.010;2023-05-18T21:09:41;102572.84;;;17.58
24714;BMP280;12820;51.580;5.010;2023-05-18T21:14:43;102568.78;;;17.46
24714;BMP280;12820;51.580;5.010;2023-05-18T21:19:45;102567.28;;;17.35
24714;BMP280;12820;51.580;5.010;2023-05-18T21:24:47;102572.53;;;17.22
24714;BMP280;12820;51.580;5.010;2023-05-18T21:29:50;102562.56;;;17.09
24714;BMP280;12820;51.580;5.010;2023-05-18T21:34:52;102579.63;;;17.00
24714;BMP280;12820;51.580;5.010;2023-05-18T21:39:54;102572.94;;;16.88
24714;BMP280;12820;51.580;5.010;2023-05-18T21:44:56;102575.66;;;16.78
24714;BMP280;12820;51.580;5.010;2023-05-18T21:49:58;102572.38;;;16.68
24714;BMP280;12820;51.580;5.010;2023-05-18T21:55:01;102569.13;;;16.58
24714;BMP280;12820;51.580;5.010;2023-05-18T22:00:04;102579.38;;;16.48
24714;BMP280;12820;51.580;5.010;2023-05-18T22:05:13;102578.63;;;16.40
24714;BMP280;12820;51.580;5.010;2023-05-18T22:10:15;102588.00;;;16.33
24714;BMP280;12820;51.580;5.010;2023-05-18T22:15:19;102583.00;;;16.24
24714;BMP280;12820;51.580;5.010;2023-05-18T22:20:23;102581.41;;;16.16
24714;BMP280;12820;51.580;5.010;2023-05-18T22:25:25;102586.53;;;16.08
24714;BMP280;12820;51.580;5.010;2023-05-18T22:30:27;102584.94;;;16.00
24714;BMP280;12820;51.580;5.010;2023-05-18T22:35:29;102578.22;;;15.90
24714;BMP280;12820;51.580;5.010;2023-05-18T22:40:32;102565.63;;;15.83
24714;BMP280;12820;51.580;5.010;2023-05-18T22:45:35;102579.19;;;15.76
24714;BMP280;12820;51.580;5.010;2023-05-18T22:50:37;102577.56;;;15.69
24714;BMP280;12820;51.580;5.010;2023-05-18T22:55:39;102570.84;;;15.63
24714;BMP280;12820;51.580;5.010;2023-05-18T23:00:41;102567.50;;;15.56
24714;BMP280;12820;51.580;5.010;2023-05-18T23:05:44;102562.50;;;15.49
24714;BMP280;12820;51.580;5.010;2023-05-18T23:10:49;102571.00;;;15.42
24714;BMP280;12820;51.580;5.010;2023-05-18T23:15:51;102581.19;;;15.35
24714;BMP280;12820;51.580;5.010;2023-05-18T23:20:57;102572.81;;;15.26
24714;BMP280;12820;51.580;5.010;2023-05-18T23:25:59;102582.13;;;15.19
24714;BMP280;12820;51.580;5.010;2023-05-18T23:31:01;102575.41;;;15.12
24714;BMP280;12820;51.580;5.010;2023-05-18T23:36:04;102572.91;;;15.07
24714;BMP280;12820;51.580;5.010;2023-05-18T23:41:07;102578.84;;;15.00
24714;BMP280;12820;51.580;5.010;2023-05-18T23:46:09;102569.59;;;14.92
24714;BMP280;12820;51.580;5.010;2023-05-18T23:51:14;102567.91;;;14.85
24714;BMP280;12820;51.580;5.010;2023-05-18T23:56:27;102571.31;;;14.79
